sensor_id;sensor_type;location;lat;lon;timestamp;temperature;humidity
17208;DHT22;8720;48.488;9.202;2023-02-28T00:01:21;1.00;38.90
17208;DHT22;8720;48.488;9.202;2023-02-28T00:03:49;1.00;39.00
17208;DHT22;8720;48.488;9.202;2023-02-28T00:06:17;1.00;39.00
17208;DHT22;8720;48.488;9.202;2023-02-28T00:08:48;1.00;39.10
17208;DHT22;8720;48.488;9.202;2023-02-28T00:11:19;1.00;39.10
17208;DHT22;8720;48.488;9.202;2023-02-28T00:13:47;1.00;39.20
17208;DHT22;8720;48.488;9.202;2023-02-28T00:16:18;1.00;39.20
17208;DHT22;8720;48.488;9.202;2023-02-28T00:18:48;1.00;39.20
17208;DHT22;8720;48.488;9.202;2023-02-28T00:21:16;1.00;39.30
17208;DHT22;8720;48.488;9.202;2023-02-28T00:23:44;1.00;39.40
17208;DHT22;8720;48.488;9.202;2023-02-28T00:26:12;1.00;39.40
17208;DHT22;8720;48.488;9.202;2023-02-28T00:28:44;1.00;39.50
17208;DHT22;8720;48.488;9.202;2023-02-28T00:31:12;1.00;39.50
17208;DHT22;8720;48.488;9.202;2023-02-28T00:33:39;1.00;39.50
17208;DHT22;8720;48.488;9.202;2023-02-28T00:36:08;1.00;39.60
17208;DHT22;8720;48.488;9.202;2023-02-28T00:38:37;1.00;39.60
17208;DHT22;8720;48.488;9.202;2023-02-28T00:41:06;1.00;39.60
17208;DHT22;8720;48.488;9.202;2023-02-28T00:43:35;1.00;39.60
17208;DHT22;8720;48.488;9.202;2023-02-28T00:46:07;0.90;39.60
17208;DHT22;8720;48.488;9.202;2023-02-28T00:48:34;0.90;39.60
17208;DHT22;8720;48.488;9.202;2023-02-28T00:51:02;0.90;39.70
17208;DHT22;8720;48.488;9.202;2023-02-28T00:53:30;0.90;39.80
17208;DHT22;8720;48.488;9.202;2023-02-28T00:55:59;0.90;39.80
17208;DHT22;8720;48.488;9.202;2023-02-28T00:58:26;0.80;39.80
17208;DHT22;8720;48.488;9.202;2023-02-28T01:00:54;0.80;39.80
17208;DHT22;8720;48.488;9.202;2023-02-28T01:03:22;0.80;39.90
17208;DHT22;8720;48.488;9.202;2023-02-28T01:05:50;0.80;40.00
17208;DHT22;8720;48.488;9.202;2023-02-28T01:08:19;0.80;40.10
17208;DHT22;8720;48.488;9.202;2023-02-28T01:10:46;0.80;40.20
17208;DHT22;8720;48.488;9.202;2023-02-28T01:13:15;0.80;40.30
17208;DHT22;8720;48.488;9.202;2023-02-28T01:15:46;0.80;40.40
17208;DHT22;8720;48.488;9.202;2023-02-28T01:18:18;0.80;40.60
17208;DHT22;8720;48.488;9.202;2023-02-28T01:20:48;0.80;40.70
17208;DHT22;8720;48.488;9.202;2023-02-28T01:23:18;0.80;40.90
17208;DHT22;8720;48.488;9.202;2023-02-28T01:25:46;0.80;41.00
17208;DHT22;8720;48.488;9.202;2023-02-28T01:28:13;0.80;41.10
17208;DHT22;8720;48.488;9.202;2023-02-28T01:30:40;0.70;41.10
17208;DHT22;8720;48.488;9.202;2023-02-28T01:33:08;0.70;41.20
17208;DHT22;8720;48.488;9.202;2023-02-28T01:35:36;0.70;41.30
17208;DHT22;8720;48.488;9.202;2023-02-28T01:38:04;0.70;42.10
17208;DHT22;8720;48.488;9.202;2023-02-28T01:40:32;0.60;41.50
17208;DHT22;8720;48.488;9.202;2023-02-28T01:43:00;0.60;41.60
17208;DHT22;8720;48.488;9.202;2023-02-28T01:45:28;0.60;41.70
17208;DHT22;8720;48.488;9.202;2023-02-28T01:48:01;0.60;41.80
17208;DHT22;8720;48.488;9.202;2023-02-28T01:50:34;0.60;41.90
17208;DHT22;8720;48.488;9.202;2023-02-28T01:53:11;0.60;42.00
17208;DHT22;8720;48.488;9.202;2023-02-28T01:55:46;0.50;42.00
17208;DHT22;8720;48.488;9.202;2023-02-28T01:58:16;0.60;42.10
17208;DHT22;8720;48.488;9.202;2023-02-28T02:00:46;0.60;42.20
17208;DHT22;8720;48.488;9.202;2023-02-28T02:03:16;0.50;42.10
17208;DHT22;8720;48.488;9.202;2023-02-28T02:05:46;0.50;42.20
17208;DHT22;8720;48.488;9.202;2023-02-28T02:08:19;0.50;42.30
17208;DHT22;8720;48.488;9.202;2023-02-28T02:10:50;0.50;42.40
17208;DHT22;8720;48.488;9.202;2023-02-28T02:13:49;0.40;42.30
17208;DHT22;8720;48.488;9.202;2023-02-28T02:16:35;0.40;42.60
17208;DHT22;8720;48.488;9.202;2023-02-28T02:25:51;0.40;42.60
17208;DHT22;8720;48.488;9.202;2023-02-28T02:28:49;0.40;42.50
17208;DHT22;8720;48.488;9.202;2023-02-28T02:34:39;0.40;42.70
17208;DHT22;8720;48.488;9.202;2023-02-28T02:37:24;0.40;42.70
17208;DHT22;8720;48.488;9.202;2023-02-28T02:40:03;0.40;42.70
17208;DHT22;8720;48.488;9.202;2023-02-28T02:42:54;0.30;42.70
17208;DHT22;8720;48.488;9.202;2023-02-28T02:45:32;0.40;42.80
17208;DHT22;8720;48.488;9.202;2023-02-28T02:48:04;0.40;42.90
17208;DHT22;8720;48.488;9.202;2023-02-28T02:50:36;0.40;42.90
17208;DHT22;8720;48.488;9.202;2023-02-28T02:53:08;0.40;43.00
17208;DHT22;8720;48.488;9.202;2023-02-28T02:55:40;0.40;42.90
17208;DHT22;8720;48.488;9.202;2023-02-28T02:58:15;0.40;43.00
17208;DHT22;8720;48.488;9.202;2023-02-28T03:03:30;0.40;43.00
17208;DHT22;8720;48.488;9.202;2023-02-28T03:06:01;0.50;43.20
17208;DHT22;8720;48.488;9.202;2023-02-28T03:08:34;0.50;43.30
17208;DHT22;8720;48.488;9.202;2023-02-28T03:11:04;0.50;43.30
17208;DHT22;8720;48.488;9.202;2023-02-28T03:14:02;0.50;43.30
17208;DHT22;8720;48.488;9.202;2023-02-28T03:16:54;0.60;43.50
17208;DHT22;8720;48.488;9.202;2023-02-28T03:19:47;0.60;43.40
17208;DHT22;8720;48.488;9.202;2023-02-28T03:22:33;0.70;43.30
17208;DHT22;8720;48.488;9.202;2023-02-28T03:25:21;0.70;43.30
17208;DHT22;8720;48.488;9.202;2023-02-28T03:28:01;0.70;43.20
17208;DHT22;8720;48.488;9.202;2023-02-28T03:30:38;0.70;43.30
17208;DHT22;8720;48.488;9.202;2023-02-28T03:33:15;0.80;43.30
17208;DHT22;8720;48.488;9.202;2023-02-28T03:35:51;0.80;43.30
17208;DHT22;8720;48.488;9.202;2023-02-28T03:38:28;0.80;43.30
17208;DHT22;8720;48.488;9.202;2023-02-28T03:41:07;0.80;43.40
17208;DHT22;8720;48.488;9.202;2023-02-28T03:43:46;0.80;43.50
17208;DHT22;8720;48.488;9.202;2023-02-28T03:46:20;0.80;43.50
17208;DHT22;8720;48.488;9.202;2023-02-28T03:48:55;0.80;43.50
17208;DHT22;8720;48.488;9.202;2023-02-28T03:51:28;0.80;43.50
17208;DHT22;8720;48.488;9.202;2023-02-28T03:54:03;0.80;43.60
17208;DHT22;8720;48.488;9.202;2023-02-28T03:56:39;0.80;43.60
17208;DHT22;8720;48.488;9.202;2023-02-28T03:59:13;0.80;43.70
17208;DHT22;8720;48.488;9.202;2023-02-28T04:01:46;0.80;43.80
17208;DHT22;8720;48.488;9.202;2023-02-28T04:04:16;0.80;43.80
17208;DHT22;8720;48.488;9.202;2023-02-28T04:06:44;0.80;43.80
17208;DHT22;8720;48.488;9.202;2023-02-28T04:09:14;0.80;43.90
17208;DHT22;8720;48.488;9.202;2023-02-28T04:11:43;0.80;43.90
17208;DHT22;8720;48.488;9.202;2023-02-28T04:14:12;0.80;44.00
17208;DHT22;8720;48.488;9.202;2023-02-28T04:16:41;0.80;44.00
17208;DHT22;8720;48.488;9.202;2023-02-28T04:19:10;0.80;44.10
17208;DHT22;8720;48.488;9.202;2023-02-28T04:21:40;0.80;44.20
17208;DHT22;8720;48.488;9.202;2023-02-28T04:24:10;0.80;44.10
17208;DHT22;8720;48.488;9.202;2023-02-28T04:26:42;0.80;44.80
17208;DHT22;8720;48.488;9.202;2023-02-28T04:29:12;0.80;44.20
17208;DHT22;8720;48.488;9.202;2023-02-28T04:31:41;0.80;44.20
17208;DHT22;8720;48.488;9.202;2023-02-28T04:34:08;0.80;44.20
17208;DHT22;8720;48.488;9.202;2023-02-28T04:36:35;0.80;44.20
17208;DHT22;8720;48.488;9.202;2023-02-28T04:39:03;0.80;44.20
17208;DHT22;8720;48.488;9.202;2023-02-28T04:41:32;0.80;44.30
17208;DHT22;8720;48.488;9.202;2023-02-28T04:43:59;0.80;44.30
17208;DHT22;8720;48.488;9.202;2023-02-28T04:46:26;0.80;44.30
17208;DHT22;8720;48.488;9.202;2023-02-28T04:48:56;0.80;44.30
17208;DHT22;8720;48.488;9.202;2023-02-28T04:51:23;0.80;44.30
17208;DHT22;8720;48.488;9.202;2023-02-28T04:53:51;0.80;44.30
17208;DHT22;8720;48.488;9.202;2023-02-28T04:56:19;0.90;44.40
17208;DHT22;8720;48.488;9.202;2023-02-28T04:58:48;0.90;44.50
17208;DHT22;8720;48.488;9.202;2023-02-28T05:01:19;0.90;44.60
17208;DHT22;8720;48.488;9.202;2023-02-28T05:03:50;0.90;44.60
17208;DHT22;8720;48.488;9.202;2023-02-28T05:06:21;0.90;44.50
17208;DHT22;8720;48.488;9.202;2023-02-28T05:08:50;0.90;44.50
17208;DHT22;8720;48.488;9.202;2023-02-28T05:11:19;0.90;45.10
17208;DHT22;8720;48.488;9.202;2023-02-28T05:13:51;0.90;44.50
17208;DHT22;8720;48.488;9.202;2023-02-28T05:16:19;0.90;44.60
17208;DHT22;8720;48.488;9.202;2023-02-28T05:18:47;0.90;44.60
17208;DHT22;8720;48.488;9.202;2023-02-28T05:21:24;0.90;44.60
17208;DHT22;8720;48.488;9.202;2023-02-28T05:23:56;0.90;44.70
17208;DHT22;8720;48.488;9.202;2023-02-28T05:26:26;0.90;44.70
17208;DHT22;8720;48.488;9.202;2023-02-28T05:28:56;1.00;44.80
17208;DHT22;8720;48.488;9.202;2023-02-28T05:31:24;1.00;44.80
17208;DHT22;8720;48.488;9.202;2023-02-28T05:33:51;1.00;44.80
17208;DHT22;8720;48.488;9.202;2023-02-28T05:36:19;1.00;44.80
17208;DHT22;8720;48.488;9.202;2023-02-28T05:38:47;1.00;44.90
17208;DHT22;8720;48.488;9.202;2023-02-28T05:41:15;1.00;44.80
17208;DHT22;8720;48.488;9.202;2023-02-28T05:43:43;1.00;44.90
17208;DHT22;8720;48.488;9.202;2023-02-28T05:46:12;1.00;45.00
17208;DHT22;8720;48.488;9.202;2023-02-28T05:48:41;1.00;45.10
17208;DHT22;8720;48.488;9.202;2023-02-28T05:51:09;1.00;45.00
17208;DHT22;8720;48.488;9.202;2023-02-28T05:53:37;1.00;45.00
17208;DHT22;8720;48.488;9.202;2023-02-28T05:56:04;1.00;45.00
17208;DHT22;8720;48.488;9.202;2023-02-28T05:58:32;1.00;45.00
17208;DHT22;8720;48.488;9.202;2023-02-28T06:01:18;1.00;45.00
17208;DHT22;8720;48.488;9.202;2023-02-28T06:03:49;1.00;45.00
17208;DHT22;8720;48.488;9.202;2023-02-28T06:06:16;1.00;44.90
17208;DHT22;8720;48.488;9.202;2023-02-28T06:08:43;1.00;45.00
17208;DHT22;8720;48.488;9.202;2023-02-28T06:11:11;1.00;45.00
17208;DHT22;8720;48.488;9.202;2023-02-28T06:13:39;1.00;45.00
17208;DHT22;8720;48.488;9.202;2023-02-28T06:16:07;1.10;45.10
17208;DHT22;8720;48.488;9.202;2023-02-28T06:18:36;1.10;45.00
17208;DHT22;8720;48.488;9.202;2023-02-28T06:21:04;1.10;45.00
17208;DHT22;8720;48.488;9.202;2023-02-28T06:23:31;1.10;45.30
17208;DHT22;8720;48.488;9.202;2023-02-28T06:25:58;1.10;45.30
17208;DHT22;8720;48.488;9.202;2023-02-28T06:28:26;1.10;45.10
17208;DHT22;8720;48.488;9.202;2023-02-28T06:30:53;1.20;45.10
17208;DHT22;8720;48.488;9.202;2023-02-28T06:33:20;1.20;44.90
17208;DHT22;8720;48.488;9.202;2023-02-28T06:35:50;1.30;44.90
17208;DHT22;8720;48.488;9.202;2023-02-28T06:38:18;1.30;44.80
17208;DHT22;8720;48.488;9.202;2023-02-28T06:40:53;1.30;44.80
17208;DHT22;8720;48.488;9.202;2023-02-28T06:43:21;1.30;44.80
17208;DHT22;8720;48.488;9.202;2023-02-28T06:45:48;1.40;44.80
17208;DHT22;8720;48.488;9.202;2023-02-28T06:48:16;1.40;44.80
17208;DHT22;8720;48.488;9.202;2023-02-28T06:50:43;1.40;44.70
17208;DHT22;8720;48.488;9.202;2023-02-28T06:53:12;1.40;44.60
17208;DHT22;8720;48.488;9.202;2023-02-28T06:55:40;1.40;44.60
17208;DHT22;8720;48.488;9.202;2023-02-28T06:58:08;1.40;44.60
17208;DHT22;8720;48.488;9.202;2023-02-28T07:00:40;1.50;44.70
17208;DHT22;8720;48.488;9.202;2023-02-28T07:03:08;1.50;45.30
17208;DHT22;8720;48.488;9.202;2023-02-28T07:05:35;1.50;44.60
17208;DHT22;8720;48.488;9.202;2023-02-28T07:08:04;1.50;44.60
17208;DHT22;8720;48.488;9.202;2023-02-28T07:10:34;1.50;44.50
17208;DHT22;8720;48.488;9.202;2023-02-28T07:13:04;1.60;44.60
17208;DHT22;8720;48.488;9.202;2023-02-28T07:15:31;1.60;44.50
17208;DHT22;8720;48.488;9.202;2023-02-28T07:17:59;1.60;44.40
17208;DHT22;8720;48.488;9.202;2023-02-28T07:20:26;1.60;44.40
17208;DHT22;8720;48.488;9.202;2023-02-28T07:22:54;1.70;44.40
17208;DHT22;8720;48.488;9.202;2023-02-28T07:25:22;1.70;44.30
17208;DHT22;8720;48.488;9.202;2023-02-28T07:27:51;1.80;44.30
17208;DHT22;8720;48.488;9.202;2023-02-28T07:30:19;1.80;44.10
17208;DHT22;8720;48.488;9.202;2023-02-28T07:32:47;1.90;44.10
17208;DHT22;8720;48.488;9.202;2023-02-28T07:35:14;1.90;44.20
17208;DHT22;8720;48.488;9.202;2023-02-28T07:37:42;1.90;43.90
17208;DHT22;8720;48.488;9.202;2023-02-28T07:40:11;2.00;43.90
17208;DHT22;8720;48.488;9.202;2023-02-28T07:42:39;2.00;43.70
17208;DHT22;8720;48.488;9.202;2023-02-28T07:45:10;2.10;43.60
17208;DHT22;8720;48.488;9.202;2023-02-28T07:47:38;2.10;43.50
17208;DHT22;8720;48.488;9.202;2023-02-28T07:50:06;2.10;43.50
17208;DHT22;8720;48.488;9.202;2023-02-28T07:52:36;2.10;43.40
17208;DHT22;8720;48.488;9.202;2023-02-28T07:55:05;2.20;43.40
17208;DHT22;8720;48.488;9.202;2023-02-28T07:57:33;2.10;43.30
17208;DHT22;8720;48.488;9.202;2023-02-28T08:00:01;2.20;43.40
17208;DHT22;8720;48.488;9.202;2023-02-28T08:02:38;2.20;43.30
17208;DHT22;8720;48.488;9.202;2023-02-28T08:05:07;2.20;43.80
17208;DHT22;8720;48.488;9.202;2023-02-28T08:07:35;2.20;43.10
17208;DHT22;8720;48.488;9.202;2023-02-28T08:10:03;2.20;42.90
17208;DHT22;8720;48.488;9.202;2023-02-28T08:12:32;2.20;42.90
17208;DHT22;8720;48.488;9.202;2023-02-28T08:14:59;2.20;43.00
17208;DHT22;8720;48.488;9.202;2023-02-28T08:17:27;2.30;43.10
17208;DHT22;8720;48.488;9.202;2023-02-28T08:19:55;2.30;43.10
17208;DHT22;8720;48.488;9.202;2023-02-28T08:22:23;2.30;43.20
17208;DHT22;8720;48.488;9.202;2023-02-28T08:24:50;2.30;43.10
17208;DHT22;8720;48.488;9.202;2023-02-28T08:27:17;2.40;43.00
17208;DHT22;8720;48.488;9.202;2023-02-28T08:29:44;2.40;43.00
17208;DHT22;8720;48.488;9.202;2023-02-28T08:32:12;2.40;42.90
17208;DHT22;8720;48.488;9.202;2023-02-28T08:34:39;2.40;42.90
17208;DHT22;8720;48.488;9.202;2023-02-28T08:37:08;2.50;42.90
17208;DHT22;8720;48.488;9.202;2023-02-28T08:39:36;2.50;42.80
17208;DHT22;8720;48.488;9.202;2023-02-28T08:42:03;2.50;43.00
17208;DHT22;8720;48.488;9.202;2023-02-28T08:44:32;2.50;42.90
17208;DHT22;8720;48.488;9.202;2023-02-28T08:46:59;2.50;42.90
17208;DHT22;8720;48.488;9.202;2023-02-28T08:49:27;2.60;42.90
17208;DHT22;8720;48.488;9.202;2023-02-28T08:51:54;2.60;42.80
17208;DHT22;8720;48.488;9.202;2023-02-28T08:54:24;2.70;42.90
17208;DHT22;8720;48.488;9.202;2023-02-28T08:56:51;2.70;42.80
17208;DHT22;8720;48.488;9.202;2023-02-28T08:59:19;2.70;42.80
17208;DHT22;8720;48.488;9.202;2023-02-28T09:01:46;2.70;42.70
17208;DHT22;8720;48.488;9.202;2023-02-28T09:04:13;2.80;42.60
17208;DHT22;8720;48.488;9.202;2023-02-28T09:06:41;2.80;42.40
17208;DHT22;8720;48.488;9.202;2023-02-28T09:09:08;2.80;42.40
17208;DHT22;8720;48.488;9.202;2023-02-28T09:11:37;2.70;42.30
17208;DHT22;8720;48.488;9.202;2023-02-28T09:14:05;2.70;42.30
17208;DHT22;8720;48.488;9.202;2023-02-28T09:16:33;2.70;42.40
17208;DHT22;8720;48.488;9.202;2023-02-28T09:19:01;2.70;42.40
17208;DHT22;8720;48.488;9.202;2023-02-28T09:21:28;2.70;42.60
17208;DHT22;8720;48.488;9.202;2023-02-28T09:23:56;2.80;42.60
17208;DHT22;8720;48.488;9.202;2023-02-28T09:26:25;2.80;42.50
17208;DHT22;8720;48.488;9.202;2023-02-28T09:28:55;2.80;42.40
17208;DHT22;8720;48.488;9.202;2023-02-28T09:31:26;2.80;42.30
17208;DHT22;8720;48.488;9.202;2023-02-28T09:33:56;2.80;42.30
17208;DHT22;8720;48.488;9.202;2023-02-28T09:36:26;2.80;42.40
17208;DHT22;8720;48.488;9.202;2023-02-28T09:38:55;2.80;42.30
17208;DHT22;8720;48.488;9.202;2023-02-28T09:41:25;2.80;42.30
17208;DHT22;8720;48.488;9.202;2023-02-28T09:43:56;2.90;42.40
17208;DHT22;8720;48.488;9.202;2023-02-28T09:46:32;2.90;42.30
17208;DHT22;8720;48.488;9.202;2023-02-28T09:49:06;2.90;42.20
17208;DHT22;8720;48.488;9.202;2023-02-28T09:51:45;2.90;42.20
17208;DHT22;8720;48.488;9.202;2023-02-28T09:54:18;2.90;42.00
17208;DHT22;8720;48.488;9.202;2023-02-28T09:56:50;3.00;42.20
17208;DHT22;8720;48.488;9.202;2023-02-28T09:59:31;3.00;42.20
17208;DHT22;8720;48.488;9.202;2023-02-28T10:02:21;3.10;42.10
17208;DHT22;8720;48.488;9.202;2023-02-28T10:05:09;3.20;42.00
17208;DHT22;8720;48.488;9.202;2023-02-28T10:07:55;3.30;42.10
17208;DHT22;8720;48.488;9.202;2023-02-28T10:10:37;3.40;42.00
17208;DHT22;8720;48.488;9.202;2023-02-28T10:13:15;3.50;42.00
17208;DHT22;8720;48.488;9.202;2023-02-28T10:15:52;3.50;41.80
17208;DHT22;8720;48.488;9.202;2023-02-28T10:18:27;3.60;41.80
17208;DHT22;8720;48.488;9.202;2023-02-28T10:21:03;3.60;41.60
17208;DHT22;8720;48.488;9.202;2023-02-28T10:23:33;3.60;41.60
17208;DHT22;8720;48.488;9.202;2023-02-28T10:26:12;3.70;41.70
17208;DHT22;8720;48.488;9.202;2023-02-28T10:28:41;3.70;41.50
17208;DHT22;8720;48.488;9.202;2023-02-28T10:31:14;3.80;41.60
17208;DHT22;8720;48.488;9.202;2023-02-28T10:33:44;3.80;41.40
17208;DHT22;8720;48.488;9.202;2023-02-28T10:36:15;3.90;41.70
17208;DHT22;8720;48.488;9.202;2023-02-28T10:38:46;3.90;41.50
17208;DHT22;8720;48.488;9.202;2023-02-28T10:41:15;4.00;41.50
17208;DHT22;8720;48.488;9.202;2023-02-28T10:44:13;4.00;41.30
17208;DHT22;8720;48.488;9.202;2023-02-28T10:46:45;4.10;40.90
17208;DHT22;8720;48.488;9.202;2023-02-28T10:49:17;4.20;41.20
17208;DHT22;8720;48.488;9.202;2023-02-28T10:51:50;4.20;41.20
17208;DHT22;8720;48.488;9.202;2023-02-28T10:54:23;4.30;41.20
17208;DHT22;8720;48.488;9.202;2023-02-28T10:57:09;4.40;41.20
17208;DHT22;8720;48.488;9.202;2023-02-28T10:59:43;4.40;40.90
17208;DHT22;8720;48.488;9.202;2023-02-28T11:02:31;4.50;41.30
17208;DHT22;8720;48.488;9.202;2023-02-28T11:05:00;4.60;41.10
17208;DHT22;8720;48.488;9.202;2023-02-28T11:07:28;4.70;41.50
17208;DHT22;8720;48.488;9.202;2023-02-28T11:09:57;4.80;41.40
17208;DHT22;8720;48.488;9.202;2023-02-28T11:12:28;4.90;41.30
17208;DHT22;8720;48.488;9.202;2023-02-28T11:15:02;5.00;41.00
17208;DHT22;8720;48.488;9.202;2023-02-28T11:17:34;5.00;40.90
17208;DHT22;8720;48.488;9.202;2023-02-28T11:20:05;5.10;40.90
17208;DHT22;8720;48.488;9.202;2023-02-28T11:22:38;5.20;40.80
17208;DHT22;8720;48.488;9.202;2023-02-28T11:25:19;5.20;40.70
17208;DHT22;8720;48.488;9.202;2023-02-28T11:27:51;5.30;40.60
17208;DHT22;8720;48.488;9.202;2023-02-28T11:30:34;5.30;40.90
17208;DHT22;8720;48.488;9.202;2023-02-28T11:33:22;5.40;40.40
17208;DHT22;8720;48.488;9.202;2023-02-28T11:35:51;5.50;40.00
17208;DHT22;8720;48.488;9.202;2023-02-28T11:38:25;5.50;40.50
17208;DHT22;8720;48.488;9.202;2023-02-28T11:41:06;5.60;40.60
17208;DHT22;8720;48.488;9.202;2023-02-28T11:43:56;5.60;40.20
17208;DHT22;8720;48.488;9.202;2023-02-28T11:46:41;5.70;39.80
17208;DHT22;8720;48.488;9.202;2023-02-28T11:49:32;5.70;40.00
17208;DHT22;8720;48.488;9.202;2023-02-28T11:52:14;5.70;39.50
17208;DHT22;8720;48.488;9.202;2023-02-28T11:55:14;5.70;39.80
17208;DHT22;8720;48.488;9.202;2023-02-28T11:58:09;5.70;39.50
17208;DHT22;8720;48.488;9.202;2023-02-28T12:01:09;5.70;39.50
17208;DHT22;8720;48.488;9.202;2023-02-28T12:04:12;5.80;39.90
17208;DHT22;8720;48.488;9.202;2023-02-28T12:06:55;5.80;40.00
17208;DHT22;8720;48.488;9.202;2023-02-28T12:09:47;5.80;39.70
17208;DHT22;8720;48.488;9.202;2023-02-28T12:12:36;5.80;39.30
17208;DHT22;8720;48.488;9.202;2023-02-28T12:15:26;5.80;39.30
17208;DHT22;8720;48.488;9.202;2023-02-28T12:18:26;5.80;39.10
17208;DHT22;8720;48.488;9.202;2023-02-28T12:21:20;5.80;39.20
17208;DHT22;8720;48.488;9.202;2023-02-28T12:24:15;5.80;39.50
17208;DHT22;8720;48.488;9.202;2023-02-28T12:27:05;5.90;39.50
17208;DHT22;8720;48.488;9.202;2023-02-28T12:29:43;5.90;39.90
17208;DHT22;8720;48.488;9.202;2023-02-28T12:32:19;6.00;39.80
17208;DHT22;8720;48.488;9.202;2023-02-28T12:34:54;6.00;39.90
17208;DHT22;8720;48.488;9.202;2023-02-28T12:37:33;6.10;39.80
17208;DHT22;8720;48.488;9.202;2023-02-28T12:40:12;6.10;39.70
17208;DHT22;8720;48.488;9.202;2023-02-28T12:42:44;6.20;39.60
17208;DHT22;8720;48.488;9.202;2023-02-28T12:45:18;6.30;39.80
17208;DHT22;8720;48.488;9.202;2023-02-28T12:47:52;6.30;39.60
17208;DHT22;8720;48.488;9.202;2023-02-28T12:50:27;6.40;39.40
17208;DHT22;8720;48.488;9.202;2023-02-28T12:53:02;6.50;39.30
17208;DHT22;8720;48.488;9.202;2023-02-28T12:55:41;6.50;39.20
17208;DHT22;8720;48.488;9.202;2023-02-28T12:58:20;6.50;39.10
17208;DHT22;8720;48.488;9.202;2023-02-28T13:01:13;6.50;39.10
17208;DHT22;8720;48.488;9.202;2023-02-28T13:04:27;6.50;38.70
17208;DHT22;8720;48.488;9.202;2023-02-28T13:10:42;6.50;38.30
17208;DHT22;8720;48.488;9.202;2023-02-28T13:13:20;6.50;38.70
17208;DHT22;8720;48.488;9.202;2023-02-28T13:16:04;6.40;38.50
17208;DHT22;8720;48.488;9.202;2023-02-28T13:18:35;6.40;38.40
17208;DHT22;8720;48.488;9.202;2023-02-28T13:21:06;6.40;38.70
17208;DHT22;8720;48.488;9.202;2023-02-28T13:23:57;6.30;38.50
17208;DHT22;8720;48.488;9.202;2023-02-28T13:27:22;6.30;38.50
17208;DHT22;8720;48.488;9.202;2023-02-28T13:30:00;6.30;38.40
17208;DHT22;8720;48.488;9.202;2023-02-28T13:32:32;6.30;39.10
17208;DHT22;8720;48.488;9.202;2023-02-28T13:38:24;6.40;38.80
17208;DHT22;8720;48.488;9.202;2023-02-28T13:44:12;6.50;38.80
17208;DHT22;8720;48.488;9.202;2023-02-28T13:49:52;6.70;38.80
17208;DHT22;8720;48.488;9.202;2023-02-28T13:52:22;6.80;39.50
17208;DHT22;8720;48.488;9.202;2023-02-28T13:55:19;6.80;39.00
17208;DHT22;8720;48.488;9.202;2023-02-28T13:58:09;6.90;38.60
17208;DHT22;8720;48.488;9.202;2023-02-28T14:01:08;7.00;38.60
17208;DHT22;8720;48.488;9.202;2023-02-28T14:03:58;7.10;38.50
17208;DHT22;8720;48.488;9.202;2023-02-28T14:06:40;7.20;38.60
17208;DHT22;8720;48.488;9.202;2023-02-28T14:09:23;7.20;38.90
17208;DHT22;8720;48.488;9.202;2023-02-28T14:11:52;7.30;38.20
17208;DHT22;8720;48.488;9.202;2023-02-28T14:14:54;7.30;38.40
17208;DHT22;8720;48.488;9.202;2023-02-28T14:17:27;7.40;37.70
17208;DHT22;8720;48.488;9.202;2023-02-28T14:19:58;7.40;38.90
17208;DHT22;8720;48.488;9.202;2023-02-28T14:22:51;7.40;38.20
17208;DHT22;8720;48.488;9.202;2023-02-28T14:25:33;7.40;37.70
17208;DHT22;8720;48.488;9.202;2023-02-28T14:28:14;7.50;38.20
17208;DHT22;8720;48.488;9.202;2023-02-28T14:30:56;7.50;38.00
17208;DHT22;8720;48.488;9.202;2023-02-28T14:33:46;7.50;37.80
17208;DHT22;8720;48.488;9.202;2023-02-28T14:36:30;7.50;37.40
17208;DHT22;8720;48.488;9.202;2023-02-28T14:39:01;7.50;37.80
17208;DHT22;8720;48.488;9.202;2023-02-28T14:41:34;7.50;38.10
17208;DHT22;8720;48.488;9.202;2023-02-28T14:44:14;7.50;37.80
17208;DHT22;8720;48.488;9.202;2023-02-28T14:46:44;7.50;37.50
17208;DHT22;8720;48.488;9.202;2023-02-28T14:49:18;7.50;37.60
17208;DHT22;8720;48.488;9.202;2023-02-28T14:51:49;7.50;37.60
17208;DHT22;8720;48.488;9.202;2023-02-28T14:54:40;7.50;37.90
17208;DHT22;8720;48.488;9.202;2023-02-28T14:57:21;7.50;37.90
17208;DHT22;8720;48.488;9.202;2023-02-28T15:00:03;7.50;37.40
17208;DHT22;8720;48.488;9.202;2023-02-28T15:02:39;7.50;37.60
17208;DHT22;8720;48.488;9.202;2023-02-28T15:05:24;7.50;37.70
17208;DHT22;8720;48.488;9.202;2023-02-28T15:08:05;7.50;37.20
17208;DHT22;8720;48.488;9.202;2023-02-28T15:10:39;7.50;37.10
17208;DHT22;8720;48.488;9.202;2023-02-28T15:13:15;7.50;37.40
17208;DHT22;8720;48.488;9.202;2023-02-28T15:15:47;7.50;38.20
17208;DHT22;8720;48.488;9.202;2023-02-28T15:18:24;7.50;37.60
17208;DHT22;8720;48.488;9.202;2023-02-28T15:21:00;7.50;37.40
17208;DHT22;8720;48.488;9.202;2023-02-28T15:23:31;7.50;37.60
17208;DHT22;8720;48.488;9.202;2023-02-28T15:26:00;7.50;37.70
17208;DHT22;8720;48.488;9.202;2023-02-28T15:28:28;7.60;37.70
17208;DHT22;8720;48.488;9.202;2023-02-28T15:30:59;7.60;37.70
17208;DHT22;8720;48.488;9.202;2023-02-28T15:33:29;7.60;37.50
17208;DHT22;8720;48.488;9.202;2023-02-28T15:36:14;7.60;37.50
17208;DHT22;8720;48.488;9.202;2023-02-28T15:38:50;7.60;37.00
17208;DHT22;8720;48.488;9.202;2023-02-28T15:41:24;7.60;37.20
17208;DHT22;8720;48.488;9.202;2023-02-28T15:44:23;7.60;37.20
17208;DHT22;8720;48.488;9.202;2023-02-28T15:47:01;7.60;36.80
17208;DHT22;8720;48.488;9.202;2023-02-28T15:49:40;7.60;37.00
17208;DHT22;8720;48.488;9.202;2023-02-28T15:52:17;7.60;37.10
17208;DHT22;8720;48.488;9.202;2023-02-28T15:54:47;7.50;37.20
17208;DHT22;8720;48.488;9.202;2023-02-28T15:57:18;7.50;37.20
17208;DHT22;8720;48.488;9.202;2023-02-28T15:59:51;7.50;37.10
17208;DHT22;8720;48.488;9.202;2023-02-28T16:02:30;7.50;37.30
17208;DHT22;8720;48.488;9.202;2023-02-28T16:05:01;7.50;37.20
17208;DHT22;8720;48.488;9.202;2023-02-28T16:07:47;7.50;37.20
17208;DHT22;8720;48.488;9.202;2023-02-28T16:10:15;7.40;37.30
17208;DHT22;8720;48.488;9.202;2023-02-28T16:12:42;7.40;37.40
17208;DHT22;8720;48.488;9.202;2023-02-28T16:15:18;7.40;37.40
17208;DHT22;8720;48.488;9.202;2023-02-28T16:17:47;7.40;37.00
17208;DHT22;8720;48.488;9.202;2023-02-28T16:20:16;7.40;37.40
17208;DHT22;8720;48.488;9.202;2023-02-28T16:22:47;7.30;37.30
17208;DHT22;8720;48.488;9.202;2023-02-28T16:25:15;7.30;37.20
17208;DHT22;8720;48.488;9.202;2023-02-28T16:27:46;7.30;37.30
17208;DHT22;8720;48.488;9.202;2023-02-28T16:30:19;7.30;37.30
17208;DHT22;8720;48.488;9.202;2023-02-28T16:32:48;7.20;37.30
17208;DHT22;8720;48.488;9.202;2023-02-28T16:35:20;7.20;37.30
17208;DHT22;8720;48.488;9.202;2023-02-28T16:37:51;7.20;37.40
17208;DHT22;8720;48.488;9.202;2023-02-28T16:40:20;7.10;37.20
17208;DHT22;8720;48.488;9.202;2023-02-28T16:42:49;7.10;37.30
17208;DHT22;8720;48.488;9.202;2023-02-28T16:45:21;7.10;37.30
17208;DHT22;8720;48.488;9.202;2023-02-28T16:47:52;7.00;37.30
17208;DHT22;8720;48.488;9.202;2023-02-28T16:50:22;7.00;37.30
17208;DHT22;8720;48.488;9.202;2023-02-28T16:52:52;7.00;37.30
17208;DHT22;8720;48.488;9.202;2023-02-28T16:55:21;6.90;37.30
17208;DHT22;8720;48.488;9.202;2023-02-28T16:57:52;6.90;37.30
17208;DHT22;8720;48.488;9.202;2023-02-28T17:00:21;6.80;37.30
17208;DHT22;8720;48.488;9.202;2023-02-28T17:02:50;6.80;37.40
17208;DHT22;8720;48.488;9.202;2023-02-28T17:05:19;6.70;37.40
17208;DHT22;8720;48.488;9.202;2023-02-28T17:07:48;6.70;37.50
17208;DHT22;8720;48.488;9.202;2023-02-28T17:10:18;6.60;37.40